Time;durP1;ratioP1;P1;durP2;ratioP2;P2;SDS_P1;SDS_P2;PMS_P1;PMS_P2;Temp;Humidity;BMP_temperature;BMP_pressure;BME280_temperature;BME280_humidity;BME280_pressure;Samples;Min_cycle;Max_cycle;Signal;HPM_P1;HPM_P2
2022/06/28 00:02:10;;;;;;;0.85;0.10;;;;;;;22.00;53.28;102033.28;16141423;19;128973;-64
2022/06/28 00:07:32;;;;;;;0.10;0.05;;;;;;;22.00;53.01;102033.28;16144674;19;129440;-64
2022/06/28 00:12:54;;;;;;;0.30;0.10;;;;;;;21.99;52.92;102028.78;16141818;19;129613;-64
2022/06/28 00:18:16;;;;;;;0.38;0.10;;;;;;;21.98;53.15;102033.50;16144870;19;129331;-64
2022/06/28 00:23:42;;;;;;;0.08;0.08;;;;;;;21.97;53.31;102039.34;16137605;19;130133;-64
2022/06/28 00:29:04;;;;;;;0.08;0.00;;;;;;;21.96;52.97;102032.06;16142619;19;130006;-64
2022/06/28 00:34:26;;;;;;;0.20;0.10;;;;;;;21.96;53.21;102040.41;16139689;19;129486;-64
2022/06/28 00:39:48;;;;;;;0.22;0.17;;;;;;;21.95;53.18;102039.59;16141399;19;130435;-64
2022/06/28 00:45:10;;;;;;;0.40;0.10;;;;;;;21.94;53.08;102042.59;16145128;19;131577;-64
2022/06/28 00:50:34;;;;;;;0.10;0.10;;;;;;;21.93;52.94;102044.53;16139367;19;129640;-64
2022/06/28 00:55:56;;;;;;;0.70;0.20;;;;;;;21.94;53.51;102045.38;16143713;19;130293;-64
2022/06/28 01:01:24;;;;;;;0.10;0.08;;;;;;;21.94;53.00;102039.81;16137803;19;129412;-63
2022/06/28 01:06:46;;;;;;;0.20;0.15;;;;;;;21.92;53.08;102047.56;16141213;19;129248;-64
2022/06/28 01:12:08;;;;;;;0.00;0.00;;;;;;;21.91;53.11;102038.34;16140630;19;129463;-64
2022/06/28 01:17:30;;;;;;;0.10;0.10;;;;;;;21.90;53.08;102038.63;16141447;19;130169;-65
2022/06/28 01:22:54;;;;;;;0.30;0.10;;;;;;;21.89;52.76;102036.91;16138236;19;131785;-65
2022/06/28 01:28:16;;;;;;;0.45;0.10;;;;;;;21.89;53.48;102048.06;16139353;19;129883;-65
2022/06/28 01:33:39;;;;;;;0.13;0.00;;;;;;;21.89;52.75;102042.50;16139287;19;129558;-64
2022/06/28 01:39:03;;;;;;;0.25;0.10;;;;;;;21.88;53.11;102044.41;16137275;19;130270;-64
2022/06/28 01:44:25;;;;;;;0.43;0.10;;;;;;;21.86;52.90;102043.78;16134565;19;130165;-65
2022/06/28 01:49:48;;;;;;;0.00;0.00;;;;;;;21.86;53.06;102051.31;16138801;19;129110;-64
2022/06/28 01:55:11;;;;;;;0.45;0.30;;;;;;;21.85;52.83;102042.09;16138791;19;130405;-65
2022/06/28 02:00:32;;;;;;;0.75;0.10;;;;;;;21.84;53.27;102048.78;16135503;19;129223;-64
2022/06/28 02:05:54;;;;;;;0.32;0.10;;;;;;;21.83;53.04;102053.50;16137707;19;129649;-64
2022/06/28 02:11:16;;;;;;;0.08;0.00;;;;;;;21.83;52.81;102056.28;16134146;19;130232;-64
2022/06/28 02:16:38;;;;;;;0.80;0.10;;;;;;;21.82;52.66;102051.78;16137495;19;128854;-65
2022/06/28 02:22:00;;;;;;;0.20;0.10;;;;;;;21.82;52.66;102054.56;16133802;19;129537;-64
2022/06/28 02:27:22;;;;;;;0.52;0.15;;;;;;;21.82;52.91;102060.16;16134125;19;129064;-64
2022/06/28 02:32:44;;;;;;;0.40;0.00;;;;;;;21.80;53.14;102062.31;16134798;19;130562;-64
2022/06/28 02:43:46;;;;;;;0.95;0.10;;;;;;;21.78;52.39;102083.16;16130035;19;129773;-64
2022/06/28 02:49:08;;;;;;;0.60;0.20;;;;;;;21.77;52.90;102085.13;16132926;19;129437;-64
2022/06/28 02:54:30;;;;;;;0.03;0.00;;;;;;;21.76;52.69;102091.78;16149777;19;129342;-64
2022/06/28 02:59:52;;;;;;;0.63;0.00;;;;;;;21.76;52.20;102088.97;16148904;19;131434;-64
2022/06/28 03:05:17;;;;;;;1.27;0.10;;;;;;;21.75;52.15;102087.28;16139528;19;129522;-64
2022/06/28 03:10:39;;;;;;;0.32;0.10;;;;;;;21.74;52.29;102090.28;16144999;19;129531;-64
2022/06/28 03:16:01;;;;;;;0.40;0.15;;;;;;;21.74;51.98;102096.72;16147308;19;130489;-64
2022/06/28 03:21:23;;;;;;;0.17;0.10;;;;;;;21.74;51.46;102093.94;16148143;19;130398;-64
2022/06/28 03:26:45;;;;;;;0.45;0.10;;;;;;;21.71;51.24;102097.19;16147109;19;129514;-64
2022/06/28 03:32:07;;;;;;;0.10;0.10;;;;;;;21.72;51.48;102101.69;16146861;19;129636;-64
2022/06/28 03:37:29;;;;;;;1.95;0.10;;;;;;;21.71;51.48;102105.56;16142548;19;129077;-64
2022/06/28 03:42:50;;;;;;;0.88;0.17;;;;;;;21.70;51.38;102114.16;16145998;19;130756;-64
2022/06/28 03:48:12;;;;;;;1.65;0.13;;;;;;;21.71;51.69;102135.34;16147362;19;128840;-64
2022/06/28 03:53:34;;;;;;;0.50;0.10;;;;;;;21.70;51.62;102134.50;16145803;19;129062;-64
2022/06/28 03:58:55;;;;;;;0.10;0.00;;;;;;;21.69;51.98;102138.34;16145678;19;129647;-64
2022/06/28 04:04:17;;;;;;;0.20;0.10;;;;;;;21.67;51.56;102133.03;16141904;19;130033;-64
2022/06/28 04:09:39;;;;;;;0.80;0.10;;;;;;;21.68;51.91;102136.66;16146404;19;129224;-64
2022/06/28 04:15:01;;;;;;;1.65;0.10;;;;;;;21.67;51.42;102134.94;16145010;19;129498;-64
2022/06/28 04:20:23;;;;;;;0.47;0.10;;;;;;;21.67;51.84;102134.94;16144514;19;130524;-64
2022/06/28 04:25:44;;;;;;;0.38;0.10;;;;;;;21.66;51.90;102141.63;16140457;19;129689;-64
2022/06/28 04:31:07;;;;;;;0.10;0.10;;;;;;;21.65;51.96;102128.78;16145054;19;129288;-64
2022/06/28 04:36:29;;;;;;;0.20;0.10;;;;;;;21.65;51.70;102129.63;16140358;19;129709;-64
2022/06/28 04:41:50;;;;;;;0.47;0.00;;;;;;;21.65;51.67;102128.78;16145146;19;130491;-64
2022/06/28 04:47:12;;;;;;;0.52;0.10;;;;;;;21.66;52.32;102125.75;16139246;19;129843;-65
2022/06/28 04:52:34;;;;;;;0.45;0.05;;;;;;;21.66;52.06;102125.75;16144426;19;129661;-64
2022/06/28 04:57:57;;;;;;;0.88;0.10;;;;;;;21.66;52.56;102127.72;16140935;19;129860;-64
2022/06/28 05:03:19;;;;;;;0.30;0.10;;;;;;;21.67;51.85;102134.94;16138553;19;128875;-64
2022/06/28 05:08:40;;;;;;;0.60;0.10;;;;;;;21.67;51.82;102132.16;16142393;19;132390;-64
2022/06/28 05:14:03;;;;;;;0.40;0.10;;;;;;;21.67;52.05;102134.94;16140275;19;130140;-64
2022/06/28 05:19:25;;;;;;;0.28;0.10;;;;;;;21.68;51.93;102128.31;16140935;19;130910;-63
2022/06/28 05:24:47;;;;;;;11.93;0.40;;;;;;;21.68;51.97;102139.44;16137055;19;130478;-66
2022/06/28 05:30:09;;;;;;;5.65;0.85;;;;;;;21.75;51.49;102131.84;16140029;19;130769;-66
2022/06/28 05:35:31;;;;;;;5.22;0.60;;;;;;;21.85;51.29;102131.25;16139173;19;129967;-66
2022/06/28 05:40:53;;;;;;;2.47;0.32;;;;;;;21.95;51.03;102136.25;16139401;19;129285;-66
2022/06/28 05:46:15;;;;;;;1.23;0.20;;;;;;;22.06;51.02;102132.63;16134273;19;129216;-65
2022/06/28 05:51:37;;;;;;;3.35;0.20;;;;;;;22.15;51.40;102129.50;16139904;19;129105;-66
2022/06/28 05:56:59;;;;;;;4.63;0.45;;;;;;;22.21;50.96;102132.19;16141165;19;130036;-66
2022/06/28 06:02:20;;;;;;;1.98;0.35;;;;;;;22.27;50.57;102127.59;16133324;19;129895;-66
2022/06/28 06:07:42;;;;;;;1.08;0.30;;;;;;;22.33;50.86;102136.91;16138186;19;130110;-65
2022/06/28 06:13:04;;;;;;;3.08;0.60;;;;;;;22.39;50.78;102127.56;16139024;19;128960;-66
2022/06/28 06:18:26;;;;;;;1.10;0.30;;;;;;;22.43;50.57;102138.00;16138059;19;129939;-66
2022/06/28 06:23:48;;;;;;;2.05;0.50;;;;;;;22.49;50.43;102140.91;16130626;19;129098;-66
2022/06/28 06:29:10;;;;;;;1.27;0.32;;;;;;;22.54;50.55;102138.22;16136961;19;129531;-66
2022/06/28 06:34:31;;;;;;;1.70;0.30;;;;;;;22.60;50.58;102134.47;16134935;19;129045;-66
2022/06/28 06:39:53;;;;;;;1.40;0.40;;;;;;;22.66;50.55;102135.44;16137662;19;129129;-66
2022/06/28 06:45:15;;;;;;;1.73;0.32;;;;;;;22.69;50.91;102141.38;16130809;19;131261;-66
2022/06/28 06:50:37;;;;;;;1.77;0.43;;;;;;;22.73;50.28;102142.59;16134436;19;130063;-66
2022/06/28 06:55:59;;;;;;;2.72;0.70;;;;;;;22.77;50.48;102139.31;16135114;19;129296;-66
2022/06/28 07:01:20;;;;;;;3.97;0.52;;;;;;;22.80;50.33;102138.81;16130247;19;129099;-66
2022/06/28 07:07:02;;;;;;;1.48;0.40;;;;;;;22.83;50.77;102135.53;16132622;19;130961;-66
2022/06/28 07:12:24;;;;;;;3.13;0.30;;;;;;;22.85;50.33;102145.34;16133196;19;129247;-66
2022/06/28 07:17:46;;;;;;;1.90;0.30;;;;;;;22.88;50.48;102149.59;16133123;19;129537;-66
2022/06/28 07:23:08;;;;;;;1.88;0.47;;;;;;;22.91;50.81;102137.13;16127952;19;129542;-66
2022/06/28 07:28:30;;;;;;;2.13;0.55;;;;;;;22.91;50.42;102140.75;16131604;19;130291;-61
2022/06/28 07:33:51;;;;;;;1.05;0.30;;;;;;;22.94;50.70;102142.22;16129299;19;129313;-62
2022/06/28 07:39:13;;;;;;;2.83;0.52;;;;;;;22.95;50.04;102122.44;16144911;19;129234;-62
2022/06/28 07:44:35;;;;;;;0.55;0.20;;;;;;;22.98;50.17;102118.28;16143045;19;129608;-61
2022/06/28 07:55:37;;;;;;;2.78;0.30;;;;;;;23.02;49.89;102123.13;16145975;19;129472;-60
2022/06/28 08:00:59;;;;;;;2.92;0.70;;;;;;;23.05;50.05;102122.63;16139975;19;129208;-65
2022/06/28 08:06:20;;;;;;;1.67;0.30;;;;;;;23.07;49.94;102118.75;16142108;19;129386;-62
2022/06/28 08:11:42;;;;;;;0.57;0.20;;;;;;;23.08;49.62;102115.69;16146172;19;129869;-61
2022/06/28 08:17:04;;;;;;;1.95;0.30;;;;;;;23.10;49.81;102109.88;16145433;19;129999;-62
2022/06/28 08:22:27;;;;;;;0.70;0.15;;;;;;;23.10;49.77;102104.31;16145290;19;129322;-64
2022/06/28 08:27:49;;;;;;;2.90;0.40;;;;;;;23.12;49.88;102102.94;16147197;19;129507;-62
2022/06/28 08:33:11;;;;;;;1.83;0.38;;;;;;;23.11;49.84;102106.84;16145131;19;129190;-61
2022/06/28 08:38:33;;;;;;;1.77;0.38;;;;;;;23.12;49.87;102097.38;16138743;19;129782;-63
2022/06/28 08:43:55;;;;;;;0.77;0.28;;;;;;;23.13;49.65;102101.84;16140609;19;130429;-63
2022/06/28 08:49:25;;;;;;;1.48;0.32;;;;;;;23.11;49.48;102092.03;16139806;19;129403;-64
2022/06/28 08:54:48;;;;;;;0.65;0.22;;;;;;;23.10;49.37;102084.75;16141545;19;129584;-63
2022/06/28 09:00:12;;;;;;;0.70;0.25;;;;;;;23.10;49.43;102077.22;16142800;19;129347;-63
2022/06/28 09:05:33;;;;;;;1.83;0.32;;;;;;;23.09;49.40;102072.72;16138428;19;129014;-64
2022/06/28 09:10:55;;;;;;;1.45;0.25;;;;;;;23.08;49.45;102071.03;16141138;19;129494;-62
2022/06/28 09:16:19;;;;;;;1.73;0.30;;;;;;;23.09;49.24;102074.69;16140199;19;129404;-61
2022/06/28 09:21:43;;;;;;;0.57;0.15;;;;;;;23.09;49.43;102063.53;16140044;19;129480;-61
2022/06/28 09:27:08;;;;;;;1.00;0.20;;;;;;;23.09;49.31;102063.53;16137042;19;130098;-64
2022/06/28 09:32:32;;;;;;;1.17;0.30;;;;;;;23.09;49.25;102060.75;16140354;19;130169;-65
2022/06/28 09:37:54;;;;;;;1.45;0.40;;;;;;;23.05;49.42;102038.91;16135479;19;130747;-65
2022/06/28 09:43:16;;;;;;;1.27;0.30;;;;;;;23.05;49.34;102038.06;16138418;19;129218;-66
2022/06/28 09:48:38;;;;;;;0.80;0.30;;;;;;;23.03;49.39;102024.34;16139154;19;129345;-68
2022/06/28 09:54:05;;;;;;;0.28;0.20;;;;;;;23.04;49.23;102025.22;16136525;19;129525;-68
2022/06/28 09:59:41;;;;;;;0.77;0.20;;;;;;;23.02;49.22;102016.22;16139973;19;129564;-68
2022/06/28 10:05:03;;;;;;;0.35;0.22;;;;;;;22.99;49.50;102012.00;16133043;19;129014;-68
2022/06/28 10:10:25;;;;;;;4.53;0.45;;;;;;;22.96;49.12;102020.88;16139268;19;129840;-68
2022/06/28 10:16:09;;;;;;;0.85;0.22;;;;;;;22.94;48.98;102009.09;16138279;19;129354;-68
2022/06/28 10:21:42;;;;;;;0.88;0.20;;;;;;;22.91;49.39;102004.00;16140862;19;129499;-67
2022/06/28 10:27:12;;;;;;;0.52;0.20;;;;;;;22.87;48.88;101986.06;16136125;19;129167;-68
2022/06/28 10:33:02;;;;;;;1.67;0.30;;;;;;;22.84;49.03;101983.78;16139279;19;129678;-68
2022/06/28 10:38:24;;;;;;;0.13;0.10;;;;;;;22.80;49.02;101982.56;16133035;19;129991;-67
2022/06/28 10:43:48;;;;;;;0.63;0.25;;;;;;;22.78;49.12;101971.66;16134267;19;129633;-67
2022/06/28 10:49:12;;;;;;;0.73;0.25;;;;;;;22.77;49.01;101963.56;16134685;19;128832;-67
2022/06/28 10:54:34;;;;;;;0.20;0.15;;;;;;;22.75;48.88;101955.41;16137605;19;129435;-67
2022/06/28 10:59:58;;;;;;;0.32;0.13;;;;;;;22.74;49.35;101951.81;16138255;19;129163;-68
2022/06/28 11:05:21;;;;;;;0.98;0.30;;;;;;;22.74;49.24;101948.16;16132987;19;129258;-68
2022/06/28 11:11:03;;;;;;;0.40;0.20;;;;;;;22.74;49.25;101937.00;16137468;19;130000;-68
2022/06/28 11:16:45;;;;;;;1.38;0.20;;;;;;;22.73;49.12;101924.13;16153577;19;129538;-68
2022/06/28 11:22:08;;;;;;;0.63;0.22;;;;;;;22.70;49.17;101936.66;16163200;19;128805;-68
2022/06/28 11:27:31;;;;;;;0.43;0.10;;;;;;;22.72;48.99;101928.03;16226906;19;129477;-68
2022/06/28 11:32:58;;;;;;;1.85;0.17;;;;;;;22.71;49.18;101910.44;16229971;19;128882;-68
2022/06/28 11:38:19;;;;;;;0.90;0.20;;;;;;;22.70;48.92;101908.75;16224661;19;128226;-68
2022/06/28 11:43:42;;;;;;;0.88;0.20;;;;;;;22.71;49.02;101910.44;16229033;19;128243;-67
2022/06/28 11:49:03;;;;;;;0.63;0.30;;;;;;;22.71;48.95;101907.66;16230121;19;127649;-68
2022/06/28 11:54:25;;;;;;;0.95;0.13;;;;;;;22.71;49.24;101904.00;16231189;19;128118;-67
2022/06/28 11:59:53;;;;;;;0.28;0.13;;;;;;;22.71;48.75;101896.50;16229397;19;129747;-68
2022/06/28 12:05:28;;;;;;;0.50;0.10;;;;;;;22.72;48.95;101891.75;16224750;19;129257;-68
2022/06/28 12:10:50;;;;;;;1.65;0.20;;;;;;;22.70;49.21;101892.00;16227389;19;127974;-66
2022/06/28 12:16:13;;;;;;;1.20;0.20;;;;;;;22.69;48.88;101895.06;16222753;19;129102;-62
2022/06/28 12:21:35;;;;;;;2.80;0.20;;;;;;;22.66;48.88;101885.25;16226416;19;128738;-62
2022/06/28 12:26:56;;;;;;;0.43;0.15;;;;;;;22.66;49.16;101890.81;16218515;19;128896;-61
2022/06/28 12:32:19;;;;;;;0.77;0.20;;;;;;;22.68;49.15;101891.41;16224452;19;128984;-68
2022/06/28 12:38:01;;;;;;;2.97;0.28;;;;;;;22.69;48.53;101884.75;16219921;19;129250;-62
2022/06/28 12:43:23;;;;;;;2.38;0.32;;;;;;;22.71;48.30;101887.28;16223495;19;128888;-66
2022/06/28 12:48:45;;;;;;;2.10;0.43;;;;;;;22.73;48.18;101877.56;16224730;19;129230;-64
2022/06/28 12:54:06;;;;;;;1.02;0.50;;;;;;;22.76;48.40;101867.84;16225493;19;128742;-63
2022/06/28 12:59:28;;;;;;;1.30;0.28;;;;;;;22.79;48.03;101860.91;16225447;19;128975;-64
2022/06/28 13:04:50;;;;;;;1.10;0.40;;;;;;;22.80;48.03;101851.44;16222359;19;128908;-67
2022/06/28 13:10:13;;;;;;;1.65;0.35;;;;;;;22.83;47.59;101856.53;16222754;19;128158;-69
2022/06/28 13:15:35;;;;;;;0.57;0.28;;;;;;;22.84;47.57;101835.91;16143374;19;129547;-68
2022/06/28 13:20:57;;;;;;;11.77;0.63;;;;;;;22.85;47.70;101832.00;16144771;19;129733;-68
2022/06/28 13:26:18;;;;;;;7.18;0.85;;;;;;;22.88;47.72;101820.34;16137739;19;129185;-69
2022/06/28 13:31:45;;;;;;;4.38;0.55;;;;;;;22.86;47.62;101819.75;16143212;19;129034;-69
2022/06/28 13:37:13;;;;;;;8.00;0.68;;;;;;;22.85;47.28;101816.09;16137079;19;130140;-67
2022/06/28 13:42:35;;;;;;;2.45;0.40;;;;;;;22.84;47.79;101811.63;16141638;19;131437;-67
2022/06/28 13:47:57;;;;;;;1.27;0.30;;;;;;;22.85;47.38;101804.13;16135852;19;129896;-69
2022/06/28 13:53:18;;;;;;;1.90;0.40;;;;;;;22.84;47.59;101799.63;16141772;19;128937;-69
2022/06/28 13:58:40;;;;;;;4.28;0.73;;;;;;;22.85;47.56;101798.53;16140182;19;129401;-69
2022/06/28 14:04:02;;;;;;;1.05;0.40;;;;;;;22.84;47.38;101788.47;16136295;19;129537;-69
2022/06/28 14:09:24;;;;;;;2.33;0.63;;;;;;;22.83;47.17;101789.56;16141819;19;129207;-69
2022/06/28 14:14:46;;;;;;;3.10;0.50;;;;;;;22.83;47.21;101779.25;16140932;19;129569;-69
2022/06/28 14:20:08;;;;;;;1.40;0.40;;;;;;;22.82;47.29;101774.78;16140789;19;130088;-69
2022/06/28 14:25:30;;;;;;;1.27;0.30;;;;;;;22.81;47.17;101772.25;16135611;19;129740;-67
2022/06/28 14:30:52;;;;;;;4.05;0.73;;;;;;;22.82;46.71;101768.34;16134208;19;130085;-66
2022/06/28 14:36:14;;;;;;;0.52;0.17;;;;;;;22.82;47.02;101749.69;16135973;19;129727;-67
2022/06/28 14:41:37;;;;;;;3.78;0.43;;;;;;;22.81;46.65;101745.19;16136903;19;129564;-70
2022/06/28 14:46:59;;;;;;;1.95;0.60;;;;;;;22.81;46.51;101735.97;16141069;19;129248;-68
2022/06/28 14:52:21;;;;;;;3.90;0.38;;;;;;;22.81;46.37;101724.81;16152499;19;129234;-69
2022/06/28 14:57:43;;;;;;;3.28;0.47;;;;;;;22.81;46.62;101738.75;16151914;19;129461;-69
2022/06/28 15:03:05;;;;;;;3.22;0.55;;;;;;;22.79;46.33;101722.28;16149161;19;129249;-68
2022/06/28 15:08:27;;;;;;;6.35;0.75;;;;;;;22.78;45.91;101709.44;16145631;19;129376;-69
2022/06/28 15:13:50;;;;;;;2.13;0.68;;;;;;;22.78;45.28;101703.00;16146894;19;129332;-68
2022/06/28 15:19:11;;;;;;;2.30;0.50;;;;;;;22.78;45.23;101703.00;16145869;19;129761;-69
2022/06/28 15:36:01;;;;;;;2.85;0.50;;;;;;;22.74;44.83;101692.38;16145584;19;129494;-70
2022/06/28 15:41:23;;;;;;;5.22;0.93;;;;;;;22.76;44.69;101688.50;16145957;19;129735;-70
2022/06/28 15:46:45;;;;;;;4.47;1.17;;;;;;;22.76;44.19;101683.75;16153288;19;129956;-70
2022/06/28 15:52:07;;;;;;;4.25;0.73;;;;;;;22.79;43.93;101674.00;16146488;19;131466;-69
2022/06/28 15:57:29;;;;;;;15.20;4.07;;;;;;;22.82;43.90;101667.91;16149050;19;129412;-68
2022/06/28 16:02:51;;;;;;;58.03;28.08;;;;;;;22.85;43.93;101670.19;16145849;19;132087;-68
2022/06/28 16:08:13;;;;;;;32.88;14.60;;;;;;;22.87;44.01;101662.44;16140455;19;129666;-68
2022/06/28 16:13:35;;;;;;;42.05;18.10;;;;;;;22.87;44.17;101662.44;16146067;19;129155;-68
2022/06/28 16:18:57;;;;;;;37.88;16.33;;;;;;;22.91;44.17;101658.03;16144264;19;129947;-68
2022/06/28 16:24:38;;;;;;;30.60;14.43;;;;;;;22.95;43.93;101659.22;16141824;19;129264;-68
2022/06/28 16:30:00;;;;;;;26.60;12.07;;;;;;;22.97;43.99;101651.44;16143956;19;129269;-68
2022/06/28 16:35:22;;;;;;;26.27;10.73;;;;;;;22.99;43.83;101657.59;16141103;19;129941;-68
2022/06/28 16:40:48;;;;;;;21.30;8.90;;;;;;;23.02;43.55;101659.03;16140409;19;129453;-68
2022/06/28 16:46:10;;;;;;;11.95;6.00;;;;;;;23.05;43.09;101650.97;16136271;19;129486;-71
2022/06/28 16:51:32;;;;;;;8.82;4.88;;;;;;;23.07;43.00;101636.78;16139101;19;129046;-70
2022/06/28 16:56:54;;;;;;;10.23;5.03;;;;;;;23.08;43.33;101630.06;16138038;19;130806;-70
2022/06/28 17:02:16;;;;;;;7.13;3.15;;;;;;;23.10;42.46;101627.03;16139232;19;129941;-72
2022/06/28 17:07:44;;;;;;;7.78;3.08;;;;;;;23.05;43.14;101623.06;16134264;19;130453;-70
2022/06/28 17:13:06;;;;;;;8.63;3.30;;;;;;;23.05;42.82;101620.28;16139340;19;130810;-71
2022/06/28 17:18:28;;;;;;;6.97;2.55;;;;;;;23.04;42.98;101618.59;16141487;19;130631;-72
2022/06/28 17:23:50;;;;;;;7.70;3.15;;;;;;;23.04;42.89;101617.75;16139010;19;130399;-61
2022/06/28 17:29:12;;;;;;;7.20;3.03;;;;;;;23.02;43.48;101609.63;16137022;19;129545;-63
2022/06/28 17:34:34;;;;;;;9.25;2.85;;;;;;;23.00;43.64;101605.41;16138624;19;129948;-64
2022/06/28 17:39:56;;;;;;;6.63;3.03;;;;;;;23.01;43.70;101610.75;16143749;19;131714;-69
2022/06/28 17:45:18;;;;;;;6.75;2.80;;;;;;;23.03;44.11;101600.16;16132923;19;129809;-68
2022/06/28 17:50:40;;;;;;;6.45;2.55;;;;;;;23.07;44.13;101605.22;16139041;19;129514;-68
2022/06/28 17:56:05;;;;;;;5.47;2.03;;;;;;;23.08;43.95;101598.53;16136001;19;128954;-69
2022/06/28 18:01:26;;;;;;;5.72;2.42;;;;;;;23.07;43.87;101600.50;16138304;19;130334;-66
2022/06/28 18:06:48;;;;;;;5.97;1.73;;;;;;;23.07;44.28;101591.25;16130418;19;129523;-69
2022/06/28 18:12:10;;;;;;;3.10;1.45;;;;;;;23.06;44.29;101590.44;16137234;19;129752;-68
2022/06/28 18:17:32;;;;;;;3.13;1.20;;;;;;;23.04;44.33;101582.31;16139314;19;129024;-67
2022/06/28 18:22:54;;;;;;;4.30;1.63;;;;;;;23.01;44.29;101585.63;16131182;19;130248;-64
2022/06/28 18:28:15;;;;;;;10.55;1.45;;;;;;;22.97;44.23;101587.25;16131008;19;129093;-67
2022/06/28 18:33:37;;;;;;;5.32;1.88;;;;;;;22.96;44.60;101588.34;16132944;19;129201;-68
2022/06/28 18:38:59;;;;;;;3.80;1.52;;;;;;;22.94;44.15;101582.19;16133875;19;129838;-67
2022/06/28 18:44:21;;;;;;;5.93;1.80;;;;;;;22.93;44.15;101582.47;16134959;19;130790;-67
2022/06/28 18:49:43;;;;;;;10.38;1.45;;;;;;;22.91;44.11;101574.31;16124444;19;129622;-68
2022/06/28 18:55:06;;;;;;;3.00;1.40;;;;;;;22.91;44.11;101579.91;16136798;19;128791;-67
2022/06/28 19:00:27;;;;;;;5.47;1.27;;;;;;;22.91;44.32;101574.31;16131964;19;129540;-63
2022/06/28 19:05:49;;;;;;;8.80;1.60;;;;;;;22.93;43.95;101579.66;16130689;19;129017;-67
2022/06/28 19:11:11;;;;;;;8.63;1.20;;;;;;;22.95;44.05;101580.25;16128142;19;129937;-64
2022/06/28 19:16:33;;;;;;;3.45;0.90;;;;;;;22.97;44.15;101573.31;16128376;19;128933;-62
2022/06/28 19:21:55;;;;;;;5.32;1.10;;;;;;;22.98;44.21;101575.00;16133140;19;129836;-63
2022/06/28 19:27:18;;;;;;;3.50;0.98;;;;;;;22.98;44.52;101575.00;16131142;19;129531;-72
2022/06/28 19:32:40;;;;;;;4.53;1.02;;;;;;;22.97;43.88;101576.09;16135143;19;129470;-61
2022/06/28 19:38:02;;;;;;;4.82;0.80;;;;;;;22.95;43.89;101580.25;16141704;19;130107;-71
2022/06/28 19:43:24;;;;;;;3.33;1.08;;;;;;;22.94;44.08;101578.56;16147039;19;129462;-73
2022/06/28 19:48:46;;;;;;;4.72;0.90;;;;;;;22.93;44.30;101583.28;16140076;19;130926;-61
2022/06/28 19:54:08;;;;;;;2.80;1.15;;;;;;;22.92;44.19;101583.56;16143952;19;131500;-67
2022/06/28 19:59:30;;;;;;;3.75;0.95;;;;;;;22.90;44.13;101589.38;16145050;19;129715;-63
2022/06/28 20:04:52;;;;;;;3.95;0.65;;;;;;;22.91;44.18;101587.44;16141295;19;129638;-69
2022/06/28 20:10:13;;;;;;;2.83;0.80;;;;;;;22.89;43.98;101588.53;16146381;19;130570;-68
2022/06/28 20:15:36;;;;;;;4.05;0.95;;;;;;;22.88;43.49;101594.38;16143663;19;129453;-68
2022/06/28 20:20:58;;;;;;;14.20;1.55;;;;;;;22.86;43.71;101585.41;16142154;19;129488;-71
2022/06/28 20:26:19;;;;;;;7.65;1.27;;;;;;;22.86;43.77;101596.56;16142333;19;129349;-72
2022/06/28 20:31:41;;;;;;;7.75;1.00;;;;;;;22.85;44.20;101587.34;16144592;19;129534;-71
2022/06/28 20:37:03;;;;;;;6.28;1.10;;;;;;;22.83;43.81;101580.34;16141898;19;130187;-71
2022/06/28 20:42:26;;;;;;;5.07;0.95;;;;;;;22.82;43.97;101584.22;16143765;19;131348;-71
2022/06/28 20:47:49;;;;;;;2.85;0.80;;;;;;;22.81;44.15;101579.75;16138575;19;128973;-71
2022/06/28 20:53:11;;;;;;;5.75;1.10;;;;;;;22.80;44.35;101578.06;16143303;19;129515;-71
2022/06/28 20:58:33;;;;;;;4.07;0.80;;;;;;;22.79;44.23;101573.59;16136986;19;129292;-71
2022/06/28 21:03:54;;;;;;;4.80;0.75;;;;;;;22.80;44.24;101572.47;16136875;19;129510;-71
2022/06/28 21:09:17;;;;;;;4.53;0.80;;;;;;;22.80;44.53;101575.28;16135560;19;129244;-71
2022/06/28 21:14:39;;;;;;;4.57;1.13;;;;;;;22.79;44.37;101576.38;16141655;19;128926;-71
2022/06/28 21:20:00;;;;;;;4.70;0.88;;;;;;;22.79;44.68;101570.78;16142206;19;129491;-71
2022/06/28 21:25:22;;;;;;;1.88;0.60;;;;;;;22.77;44.38;101568.28;16139249;19;131386;-72
2022/06/28 21:30:44;;;;;;;2.08;0.52;;;;;;;22.78;44.11;101571.88;16140549;19;130101;-71
2022/06/28 21:36:07;;;;;;;2.97;0.70;;;;;;;22.77;44.34;101559.91;16135573;19;129460;-72
2022/06/28 21:41:29;;;;;;;2.92;0.63;;;;;;;22.76;44.43;101560.19;16142215;19;131212;-71
2022/06/28 21:46:50;;;;;;;2.20;0.70;;;;;;;22.73;44.36;101558.72;16137129;19;130270;-71
2022/06/28 21:52:13;;;;;;;4.43;0.85;;;;;;;22.73;44.77;101555.94;16138342;19;129482;-72
2022/06/28 21:57:34;;;;;;;1.80;0.50;;;;;;;22.72;44.51;101555.09;16136512;19;130263;-71
2022/06/28 22:02:57;;;;;;;2.05;0.80;;;;;;;22.70;44.73;101548.94;16137125;19;129347;-71
2022/06/28 22:08:19;;;;;;;1.63;0.70;;;;;;;22.70;44.57;101550.91;16134267;19;129431;-72
2022/06/28 22:13:40;;;;;;;0.82;0.43;;;;;;;22.70;44.55;101542.53;16137915;19;129478;-72
2022/06/28 22:19:05;;;;;;;3.65;1.00;;;;;;;22.68;44.47;101539.97;16137485;19;129611;-72
2022/06/28 22:24:27;;;;;;;1.67;0.70;;;;;;;22.67;44.65;101535.50;16139355;19;130700;-71
2022/06/28 22:29:49;;;;;;;2.30;0.70;;;;;;;22.68;44.31;101530.78;16132801;19;129414;-72
2022/06/28 22:35:12;;;;;;;1.90;0.57;;;;;;;22.67;44.66;101527.13;16137977;19;130137;-72
2022/06/28 22:40:41;;;;;;;1.08;0.47;;;;;;;22.65;44.59;101526.56;16138676;19;130589;-71
2022/06/28 22:46:03;;;;;;;2.38;0.57;;;;;;;22.64;44.65;101519.31;16136425;19;130323;-72
2022/06/28 22:51:25;;;;;;;1.02;0.40;;;;;;;22.64;44.60;101512.88;16137341;19;128968;-72
2022/06/28 22:56:47;;;;;;;1.52;0.60;;;;;;;22.64;44.68;101501.72;16133749;19;128954;-72
2022/06/28 23:02:09;;;;;;;1.88;0.50;;;;;;;22.62;44.97;101504.78;16133120;19;129143;-72
2022/06/28 23:07:31;;;;;;;3.35;0.82;;;;;;;22.62;44.61;101499.19;16138109;19;129235;-72
2022/06/28 23:12:53;;;;;;;2.83;0.60;;;;;;;22.61;44.62;101496.66;16152555;19;128900;-72
2022/06/28 23:18:14;;;;;;;6.90;0.50;;;;;;;22.61;44.92;101507.81;16145507;19;129404;-71
2022/06/28 23:23:36;;;;;;;2.30;0.40;;;;;;;22.61;44.50;101496.66;16150575;19;129532;-72
2022/06/28 23:28:58;;;;;;;1.40;0.50;;;;;;;22.59;44.72;101500.53;16149800;19;129324;-72
2022/06/28 23:34:20;;;;;;;2.03;0.43;;;;;;;22.58;44.94;101489.66;16143766;19;129652;-72
2022/06/28 23:39:41;;;;;;;1.05;0.45;;;;;;;22.58;44.62;101486.88;16151946;19;129242;-72
2022/06/28 23:45:03;;;;;;;1.13;0.35;;;;;;;22.57;44.91;101480.47;16150776;19;129659;-71
2022/06/28 23:50:26;;;;;;;0.73;0.40;;;;;;;22.57;44.71;101490.75;16143346;19;129449;-72
2022/06/28 23:55:48;;;;;;;1.02;0.47;;;;;;;22.57;44.75;101493.56;16148406;19;129641;-71
